createdAt,value
2018-07-14T00:02:00.989Z,8.60
2018-07-14T00:04:29.138Z,8.20
2018-07-14T00:06:57.124Z,8.70
2018-07-14T00:09:25.195Z,8.33
2018-07-14T00:11:53.250Z,9.50
2018-07-14T00:14:21.249Z,9.60
2018-07-14T00:16:49.674Z,7.97
2018-07-14T00:19:18.186Z,8.47
2018-07-14T00:24:21.466Z,9.40
2018-07-14T00:26:49.441Z,9.37
2018-07-14T00:29:17.505Z,8.87
2018-07-14T00:31:46.224Z,8.70
2018-07-14T00:34:14.200Z,9.30
2018-07-14T00:36:43.158Z,9.00
2018-07-14T00:39:11.200Z,8.40
2018-07-14T00:41:39.206Z,10.30
2018-07-14T00:44:07.216Z,9.13
2018-07-14T00:46:35.288Z,10.00
2018-07-14T00:49:03.294Z,9.20
2018-07-14T00:51:31.412Z,8.90
2018-07-14T00:53:59.428Z,9.50
2018-07-14T00:56:27.425Z,10.73
2018-07-14T00:58:55.501Z,10.50
2018-07-14T01:01:23.531Z,9.87
2018-07-14T01:03:51.540Z,10.27
2018-07-14T01:06:19.544Z,10.47
2018-07-14T01:08:47.563Z,9.73
2018-07-14T01:11:15.879Z,9.83
2018-07-14T01:13:44.050Z,9.47
2018-07-14T01:16:12.070Z,11.07
2018-07-14T01:21:14.440Z,9.63
2018-07-14T01:23:42.438Z,10.60
2018-07-14T01:26:10.426Z,10.73
2018-07-14T01:28:38.460Z,11.20
2018-07-14T01:31:06.497Z,10.20
2018-07-14T01:33:35.548Z,9.80
2018-07-14T01:36:03.644Z,9.93
2018-07-14T01:38:32.255Z,10.63
2018-07-14T01:41:00.585Z,10.30
2018-07-14T01:43:29.638Z,11.33
2018-07-14T01:45:57.681Z,11.30
2018-07-14T01:48:25.733Z,10.83
2018-07-14T01:50:53.786Z,10.67
2018-07-14T01:53:21.777Z,9.77
2018-07-14T01:55:50.081Z,11.33
2018-07-14T01:58:18.400Z,9.47
2018-07-14T02:00:46.539Z,10.07
2018-07-14T02:03:14.545Z,10.17
2018-07-14T02:05:42.576Z,10.50
2018-07-14T02:08:11.272Z,10.20
2018-07-14T02:10:39.596Z,10.60
2018-07-14T02:13:08.414Z,10.17
2018-07-14T02:15:36.450Z,9.03
2018-07-14T02:18:04.633Z,9.43
2018-07-14T02:20:32.652Z,9.80
2018-07-14T02:23:00.633Z,9.57
2018-07-14T02:25:28.633Z,9.70
2018-07-14T02:27:56.651Z,9.40
2018-07-14T02:30:24.716Z,9.40
2018-07-14T02:32:52.856Z,9.40
2018-07-14T02:35:21.481Z,10.60
2018-07-14T02:37:49.477Z,9.60
2018-07-14T02:40:17.470Z,11.03
2018-07-14T02:42:45.527Z,11.17
2018-07-14T02:45:13.529Z,10.17
2018-07-14T02:47:41.536Z,9.57
2018-07-14T02:50:09.746Z,10.33
2018-07-14T02:52:37.744Z,9.47
2018-07-14T02:55:05.791Z,10.03
2018-07-14T02:57:34.005Z,8.30
2018-07-14T03:00:02.265Z,9.17
2018-07-14T03:02:30.485Z,10.10
2018-07-14T03:04:58.565Z,9.33
2018-07-14T03:07:26.629Z,8.90
2018-07-14T03:09:54.625Z,8.90
2018-07-14T03:12:22.630Z,11.27
2018-07-14T03:14:51.340Z,10.17
2018-07-14T03:17:20.325Z,9.47
2018-07-14T03:19:48.401Z,10.40
2018-07-14T03:22:16.385Z,9.20
2018-07-14T03:24:44.426Z,10.90
2018-07-14T03:27:12.522Z,8.90
2018-07-14T03:29:40.543Z,9.97
2018-07-14T03:32:09.243Z,9.20
2018-07-14T03:34:37.952Z,10.20
2018-07-14T03:37:06.004Z,9.50
2018-07-14T03:39:34.510Z,8.97
2018-07-14T03:42:03.315Z,10.63
2018-07-14T03:44:31.286Z,9.27
2018-07-14T03:46:59.303Z,9.80
2018-07-14T03:49:27.992Z,9.67
2018-07-14T03:51:55.993Z,11.40
2018-07-14T03:54:24.946Z,10.93
2018-07-14T03:56:52.977Z,10.60
2018-07-14T03:59:20.973Z,10.53
2018-07-14T04:01:48.969Z,10.00
2018-07-14T04:04:16.992Z,9.77
2018-07-14T04:06:45.032Z,10.03
2018-07-14T04:09:13.032Z,10.27
2018-07-14T04:11:41.676Z,10.10
2018-07-14T04:14:09.669Z,10.30
2018-07-14T04:16:37.664Z,10.63
2018-07-14T04:19:06.480Z,9.47
2018-07-14T04:21:34.515Z,10.97
2018-07-14T04:24:03.191Z,9.80
2018-07-14T04:26:31.432Z,9.40
2018-07-14T04:28:59.436Z,12.13
2018-07-14T04:31:28.071Z,9.67
2018-07-14T04:33:56.091Z,9.93
2018-07-14T04:36:24.075Z,10.20
2018-07-14T04:38:52.075Z,9.27
2018-07-14T04:41:20.101Z,10.57
2018-07-14T04:43:48.117Z,9.87
2018-07-14T04:46:16.092Z,9.87
2018-07-14T04:48:44.097Z,9.87
2018-07-14T04:51:12.080Z,9.27
2018-07-14T04:53:40.083Z,10.13
2018-07-14T04:56:08.461Z,8.97
2018-07-14T04:58:36.531Z,9.73
2018-07-14T05:01:04.621Z,10.83
2018-07-14T05:03:33.153Z,10.00
2018-07-14T05:06:01.423Z,11.00
2018-07-14T05:09:27.743Z,10.07
2018-07-14T05:14:23.018Z,8.90
2018-07-14T05:16:51.009Z,9.20
2018-07-14T05:19:18.997Z,8.97
2018-07-14T05:21:47.054Z,9.23
2018-07-14T05:24:15.049Z,8.10
2018-07-14T05:26:43.034Z,8.53
2018-07-14T05:29:11.690Z,7.93
2018-07-14T05:31:39.705Z,8.87
2018-07-14T05:34:08.755Z,8.40
2018-07-14T05:36:36.804Z,8.10
2018-07-14T05:39:05.706Z,7.60
2018-07-14T05:41:33.696Z,6.90
2018-07-14T05:44:02.035Z,7.00
2018-07-14T05:46:30.000Z,7.30
2018-07-14T05:48:58.737Z,8.57
2018-07-14T05:51:26.899Z,8.47
2018-07-14T05:53:54.950Z,7.60
2018-07-14T05:56:22.937Z,6.90
2018-07-14T05:58:51.113Z,8.23
2018-07-14T06:01:19.096Z,6.57
2018-07-14T06:03:47.148Z,6.73
2018-07-14T06:06:16.324Z,7.90
2018-07-14T06:08:44.347Z,8.17
2018-07-14T06:11:12.439Z,7.57
2018-07-14T06:13:40.832Z,7.97
2018-07-14T06:16:08.812Z,7.20
2018-07-14T06:18:36.824Z,7.80
2018-07-14T06:21:04.888Z,8.07
2018-07-14T06:23:32.884Z,7.70
2018-07-14T06:26:01.023Z,8.50
2018-07-14T06:28:29.048Z,7.27
2018-07-14T06:30:57.045Z,7.90
2018-07-14T06:33:25.029Z,8.00
2018-07-14T06:35:53.064Z,6.77
2018-07-14T06:38:21.053Z,5.80
2018-07-14T06:40:49.049Z,6.03
2018-07-14T06:43:17.060Z,5.33
2018-07-14T06:45:45.864Z,5.40
2018-07-14T06:48:13.856Z,5.30
2018-07-14T06:50:42.791Z,5.00
2018-07-14T06:53:10.768Z,5.97
2018-07-14T06:55:38.783Z,5.73
2018-07-14T06:58:07.620Z,5.70
2018-07-14T07:00:35.743Z,6.47
2018-07-14T07:03:03.919Z,5.60
2018-07-14T07:05:32.486Z,6.00
2018-07-14T07:08:02.166Z,6.70
2018-07-14T07:10:30.490Z,6.00
2018-07-14T07:12:58.823Z,5.87
2018-07-14T07:15:26.809Z,6.40
2018-07-14T07:17:54.797Z,6.70
2018-07-14T07:20:22.856Z,5.90
2018-07-14T07:22:51.015Z,6.30
2018-07-14T07:25:19.013Z,5.90
2018-07-14T07:27:47.031Z,5.67
2018-07-14T07:30:15.028Z,5.60
2018-07-14T07:32:43.055Z,5.33
2018-07-14T07:35:11.080Z,5.10
2018-07-14T07:37:39.076Z,5.40
2018-07-14T07:40:07.074Z,5.57
2018-07-14T07:42:35.640Z,4.37
2018-07-14T07:45:03.956Z,5.27
2018-07-14T07:47:33.330Z,6.30
2018-07-14T07:50:01.474Z,5.70
2018-07-14T07:52:29.485Z,6.33
2018-07-14T07:54:57.682Z,6.17
2018-07-14T07:57:25.806Z,5.80
2018-07-14T07:59:53.811Z,5.60
2018-07-14T08:02:21.805Z,6.10
2018-07-14T08:04:49.810Z,5.27
2018-07-14T08:07:17.933Z,5.40
2018-07-14T08:09:46.362Z,5.30
2018-07-14T08:12:14.527Z,5.30
2018-07-14T08:14:42.540Z,5.67
2018-07-14T08:17:10.640Z,5.70
2018-07-14T08:19:38.874Z,5.00
2018-07-14T08:22:08.104Z,6.73
2018-07-14T08:24:36.365Z,6.27
2018-07-14T08:27:04.616Z,6.07
2018-07-14T08:29:32.609Z,6.37
2018-07-14T08:32:00.583Z,6.10
2018-07-14T08:34:28.619Z,6.77
2018-07-14T08:36:56.599Z,5.37
2018-07-14T08:39:24.636Z,6.20
2018-07-14T08:41:52.672Z,6.10
2018-07-14T08:44:20.654Z,6.47
2018-07-14T08:46:48.649Z,5.47
2018-07-14T08:49:17.173Z,6.70
2018-07-14T08:51:50.577Z,6.13
2018-07-14T08:54:18.580Z,6.43
2018-07-14T08:56:46.555Z,5.83
2018-07-14T08:59:14.852Z,5.33
2018-07-14T09:01:42.868Z,6.60
2018-07-14T09:04:10.954Z,7.47
2018-07-14T09:06:38.937Z,5.77
2018-07-14T09:09:06.947Z,6.17
2018-07-14T09:11:34.978Z,7.10
2018-07-14T09:14:03.811Z,7.77
2018-07-14T09:16:31.993Z,6.20
2018-07-14T09:19:00.048Z,7.27
2018-07-14T09:21:28.198Z,5.60
2018-07-14T09:23:56.230Z,5.50
2018-07-14T09:26:24.242Z,6.97
2018-07-14T09:28:52.238Z,6.80
2018-07-14T09:31:20.269Z,8.20
2018-07-14T09:33:48.273Z,6.30
2018-07-14T09:36:16.276Z,6.07
2018-07-14T09:38:44.313Z,6.20
2018-07-14T09:41:12.841Z,6.23
2018-07-14T09:43:40.942Z,7.13
2018-07-14T09:46:08.951Z,6.50
2018-07-14T09:48:36.963Z,6.30
2018-07-14T09:51:05.139Z,7.00
2018-07-14T09:53:33.164Z,6.70
2018-07-14T09:56:01.155Z,6.50
2018-07-14T09:58:29.253Z,6.63
2018-07-14T10:01:03.431Z,7.60
2018-07-14T10:03:31.552Z,8.30
2018-07-14T10:05:59.849Z,7.50
2018-07-14T10:08:27.835Z,7.43
2018-07-14T10:10:55.978Z,8.40
2018-07-14T10:13:24.077Z,7.40
2018-07-14T10:15:52.717Z,6.67
2018-07-14T10:18:20.720Z,7.73
2018-07-14T10:20:49.441Z,7.10
2018-07-14T10:23:17.898Z,6.47
2018-07-14T10:25:46.173Z,5.73
2018-07-14T10:28:14.133Z,6.00
2018-07-14T10:30:42.396Z,6.50
2018-07-14T10:33:11.272Z,6.33
2018-07-14T10:35:39.871Z,6.90
2018-07-14T10:38:08.794Z,5.90
2018-07-14T10:40:37.135Z,6.70
2018-07-14T10:43:05.304Z,6.90
2018-07-14T10:45:33.507Z,6.13
2018-07-14T10:48:01.869Z,5.83
2018-07-14T10:50:31.318Z,6.90
2018-07-14T10:52:59.532Z,5.97
2018-07-14T10:55:27.667Z,6.00
2018-07-14T10:57:55.643Z,6.90
2018-07-14T11:00:23.777Z,5.90
2018-07-14T11:02:51.778Z,5.53
2018-07-14T11:05:19.773Z,5.80
2018-07-14T11:07:47.838Z,5.60
2018-07-14T11:10:15.870Z,5.37
2018-07-14T11:12:43.868Z,4.97
2018-07-14T11:15:12.012Z,5.50
2018-07-14T11:17:40.092Z,5.60
2018-07-14T11:20:08.072Z,5.17
2018-07-14T11:22:36.108Z,5.27
2018-07-14T11:25:04.119Z,5.80
2018-07-14T11:27:32.615Z,5.07
2018-07-14T11:30:00.907Z,5.77
2018-07-14T11:32:28.944Z,5.03
2018-07-14T11:34:56.983Z,5.27
2018-07-14T11:37:25.771Z,4.30
2018-07-14T11:39:53.909Z,4.93
2018-07-14T11:42:21.908Z,4.50
2018-07-14T11:44:50.914Z,4.87
2018-07-14T11:47:18.897Z,5.00
2018-07-14T11:49:46.912Z,4.80
2018-07-14T11:52:14.953Z,5.30
2018-07-14T11:54:42.963Z,5.43
2018-07-14T11:57:10.974Z,5.13
2018-07-14T11:59:39.824Z,4.00
2018-07-14T12:02:08.769Z,4.47
2018-07-14T12:04:36.877Z,4.30
2018-07-14T12:07:05.483Z,3.50
2018-07-14T12:09:33.546Z,4.03
2018-07-14T12:12:02.114Z,3.53
2018-07-14T12:14:30.634Z,3.07
2018-07-14T12:16:58.645Z,3.70
2018-07-14T12:19:26.648Z,3.20
2018-07-14T12:21:54.929Z,3.57
2018-07-14T12:24:23.358Z,3.40
2018-07-14T12:26:51.644Z,3.33
2018-07-14T12:29:19.756Z,3.93
2018-07-14T12:31:49.230Z,3.40
2018-07-14T12:34:17.224Z,2.90
2018-07-14T12:36:45.899Z,3.20
2018-07-14T12:39:13.972Z,3.53
2018-07-14T12:41:41.974Z,3.20
2018-07-14T12:44:10.006Z,2.80
2018-07-14T12:46:39.019Z,2.50
2018-07-14T12:49:07.240Z,3.20
2018-07-14T12:51:35.905Z,2.73
2018-07-14T12:54:03.920Z,2.57
2018-07-14T12:56:32.105Z,3.17
2018-07-14T12:59:00.272Z,2.90
2018-07-14T13:01:29.396Z,2.93
2018-07-14T13:03:57.447Z,2.80
2018-07-14T13:06:25.651Z,2.33
2018-07-14T13:08:54.417Z,3.27
2018-07-14T13:11:22.410Z,2.87
2018-07-14T13:13:50.672Z,2.10
2018-07-14T13:16:18.744Z,3.43
2018-07-14T13:18:46.755Z,3.10
2018-07-14T13:21:14.968Z,2.47
2018-07-14T13:23:43.009Z,2.90
2018-07-14T13:26:11.212Z,2.43
2018-07-14T13:28:39.251Z,3.07
2018-07-14T13:31:07.255Z,2.90
2018-07-14T13:33:35.760Z,2.47
2018-07-14T13:36:03.814Z,3.20
2018-07-14T13:38:32.062Z,2.70
2018-07-14T13:41:00.055Z,2.23
2018-07-14T13:43:28.112Z,2.90
2018-07-14T13:45:56.505Z,2.90
2018-07-14T13:48:25.856Z,2.43
2018-07-14T13:50:54.485Z,2.10
2018-07-14T13:53:22.566Z,2.17
2018-07-14T13:55:50.555Z,2.57
2018-07-14T13:58:36.978Z,2.33
2018-07-14T14:01:06.437Z,2.53
2018-07-14T14:03:34.472Z,2.30
2018-07-14T14:06:02.818Z,2.03
2018-07-14T14:08:30.839Z,2.40
2018-07-14T14:11:01.421Z,2.37
2018-07-14T14:13:33.813Z,2.00
2018-07-14T14:16:03.431Z,2.60
2018-07-14T14:18:32.898Z,2.90
2018-07-14T14:21:01.081Z,2.67
2018-07-14T14:23:29.332Z,2.20
2018-07-14T14:25:58.053Z,2.47
2018-07-14T14:28:26.912Z,2.23
2018-07-14T14:30:54.961Z,2.30
2018-07-14T14:33:23.025Z,2.33
2018-07-14T14:35:51.129Z,1.73
2018-07-14T14:38:19.113Z,2.10
2018-07-14T14:40:47.134Z,2.50
2018-07-14T14:43:15.884Z,2.37
2018-07-14T14:45:44.718Z,2.50
2018-07-14T14:48:12.911Z,2.00
2018-07-14T14:50:40.945Z,2.23
2018-07-14T14:53:09.442Z,2.73
2018-07-14T14:55:37.829Z,1.70
2018-07-14T14:58:06.086Z,2.23
2018-07-14T15:00:34.097Z,1.97
2018-07-14T15:03:02.115Z,2.47
2018-07-14T15:05:30.148Z,2.30
2018-07-14T15:07:58.154Z,2.03
2018-07-14T15:10:26.375Z,2.57
2018-07-14T15:12:55.795Z,2.07
2018-07-14T15:15:24.164Z,2.10
2018-07-14T15:17:52.186Z,1.80
2018-07-14T15:20:20.415Z,2.00
2018-07-14T15:22:48.458Z,2.20
2018-07-14T15:25:16.638Z,1.60
2018-07-14T15:27:44.928Z,2.47
2018-07-14T15:30:13.178Z,2.40
2018-07-14T15:32:41.286Z,2.30
2018-07-14T15:35:09.953Z,1.87
2018-07-14T15:37:38.614Z,1.90
2018-07-14T15:40:06.669Z,2.00
2018-07-14T15:42:34.896Z,2.10
2018-07-14T15:45:03.287Z,1.97
2018-07-14T15:47:33.189Z,1.80
2018-07-14T15:50:02.701Z,2.00
2018-07-14T15:52:32.947Z,1.77
2018-07-14T15:55:01.032Z,1.67
2018-07-14T15:57:29.059Z,1.63
2018-07-14T15:59:58.120Z,1.63
2018-07-14T16:02:26.122Z,1.53
2018-07-14T16:04:54.923Z,1.60
2018-07-14T16:07:22.926Z,1.70
2018-07-14T16:09:50.951Z,2.10
2018-07-14T16:12:18.965Z,1.70
2018-07-14T16:14:47.260Z,1.83
2018-07-14T16:17:15.811Z,2.10
2018-07-14T16:19:43.872Z,1.70
2018-07-14T16:22:11.882Z,1.80
2018-07-14T16:24:39.899Z,1.80
2018-07-14T16:27:08.143Z,1.67
2018-07-14T16:29:41.541Z,1.70
2018-07-14T16:32:09.878Z,1.53
2018-07-14T16:34:37.895Z,1.50
2018-07-14T16:37:05.921Z,1.70
2018-07-14T16:39:34.058Z,1.50
2018-07-14T16:42:02.337Z,1.67
2018-07-14T16:44:30.399Z,1.80
2018-07-14T16:46:58.477Z,1.23
2018-07-14T16:49:26.595Z,1.80
2018-07-14T16:51:55.989Z,1.70
2018-07-14T16:54:24.033Z,1.90
2018-07-14T16:56:52.663Z,2.67
2018-07-14T16:59:20.665Z,2.60
2018-07-14T17:01:48.760Z,1.80
2018-07-14T17:04:18.353Z,1.90
2018-07-14T17:06:46.506Z,2.00
2018-07-14T17:09:14.996Z,1.60
2018-07-14T17:11:44.742Z,1.67
2018-07-14T17:14:12.864Z,1.70
2018-07-14T17:16:40.959Z,1.70
2018-07-14T17:19:08.991Z,1.83
2018-07-14T17:21:36.996Z,1.70
2018-07-14T17:24:05.776Z,1.60
2018-07-14T17:26:34.756Z,1.90
2018-07-14T17:29:02.768Z,1.97
2018-07-14T17:31:31.003Z,1.70
2018-07-14T17:34:04.556Z,1.67
2018-07-14T17:36:32.593Z,2.00
2018-07-14T17:39:00.647Z,1.77
2018-07-14T17:41:28.681Z,2.10
2018-07-14T17:43:56.756Z,2.10
2018-07-14T17:46:24.856Z,1.87
2018-07-14T17:48:53.549Z,1.87
2018-07-14T17:51:24.310Z,2.10
2018-07-14T17:53:52.497Z,1.70
2018-07-14T17:56:20.793Z,1.73
2018-07-14T17:58:49.141Z,1.70
2018-07-14T18:01:17.492Z,1.50
2018-07-14T18:03:46.564Z,1.80
2018-07-14T18:06:16.137Z,2.00
2018-07-14T18:08:44.687Z,1.50
2018-07-14T18:11:16.614Z,1.50
2018-07-14T18:13:44.924Z,1.53
2018-07-14T18:16:13.153Z,1.80
2018-07-14T18:18:43.037Z,2.27
2018-07-14T18:21:11.152Z,2.17
2018-07-14T18:23:39.464Z,1.93
2018-07-14T18:26:08.126Z,1.73
2018-07-14T18:28:36.103Z,1.60
2018-07-14T18:31:05.355Z,1.67
2018-07-14T18:33:33.734Z,1.90
2018-07-14T18:36:02.817Z,1.83
2018-07-14T18:38:30.861Z,1.63
2018-07-14T18:40:58.925Z,1.50
2018-07-14T18:43:27.208Z,1.30
2018-07-14T18:45:55.289Z,1.50
2018-07-14T18:48:23.313Z,1.23
2018-07-14T20:08:37.496Z,1.37
2018-07-14T20:11:06.404Z,1.80
2018-07-14T20:13:34.426Z,1.70
2018-07-14T20:16:03.457Z,1.77
2018-07-14T20:18:31.626Z,1.53
2018-07-14T20:20:59.682Z,1.83
2018-07-14T20:23:27.713Z,1.90
2018-07-14T20:25:56.721Z,2.30
2018-07-14T20:28:31.196Z,2.13
2018-07-14T20:31:23.563Z,1.80
2018-07-14T20:33:53.292Z,2.20
2018-07-14T20:36:21.411Z,1.80
2018-07-14T20:38:49.421Z,1.90
2018-07-14T20:41:18.331Z,2.20
2018-07-14T20:43:48.530Z,1.70
2018-07-14T20:46:16.776Z,1.60
2018-07-14T20:48:44.953Z,1.60
2018-07-14T20:51:14.794Z,1.97
2018-07-14T20:53:43.715Z,2.10
2018-07-14T20:56:11.862Z,1.90
2018-07-14T20:58:39.874Z,2.40
2018-07-14T21:01:08.492Z,1.90
2018-07-14T21:03:37.821Z,2.10
2018-07-14T21:06:06.771Z,2.17
2018-07-14T21:08:35.818Z,2.37
2018-07-14T21:11:04.413Z,2.00
2018-07-14T21:13:33.419Z,2.40
2018-07-14T21:16:03.194Z,2.03
2018-07-14T21:18:31.793Z,1.73
2018-07-14T21:21:00.372Z,1.80
2018-07-14T21:23:28.407Z,1.80
2018-07-14T21:25:59.221Z,1.47
2018-07-14T21:28:32.666Z,1.73
2018-07-14T21:31:01.050Z,1.93
2018-07-14T21:33:30.678Z,1.67
2018-07-14T21:35:58.892Z,1.70
2018-07-14T21:38:27.072Z,1.93
2018-07-14T21:40:55.863Z,1.50
2018-07-14T21:43:23.870Z,1.63
2018-07-14T21:45:51.943Z,1.73
2018-07-14T21:48:19.947Z,1.23
2018-07-14T21:50:48.180Z,2.00
2018-07-14T21:53:16.057Z,1.70
2018-07-14T21:55:44.066Z,1.70
2018-07-14T21:58:12.927Z,1.90
2018-07-14T22:00:46.461Z,1.63
2018-07-14T22:03:14.487Z,1.90
2018-07-14T22:05:42.487Z,2.10
2018-07-14T22:08:10.537Z,2.00
2018-07-14T22:10:38.581Z,2.20
2018-07-14T22:13:06.576Z,2.17
2018-07-14T22:15:35.725Z,1.80
2018-07-14T22:18:04.365Z,2.00
2018-07-14T22:20:32.396Z,2.30
2018-07-14T22:23:01.154Z,2.33
2018-07-14T22:25:29.142Z,2.60
2018-07-14T22:27:57.521Z,2.63
2018-07-14T22:30:25.579Z,2.10
2018-07-14T22:32:53.580Z,2.47
2018-07-14T22:35:21.588Z,2.60
2018-07-14T22:37:50.464Z,2.47
2018-07-14T22:40:18.469Z,2.27
2018-07-14T22:42:46.559Z,2.40
2018-07-14T22:45:14.656Z,2.30
2018-07-14T22:47:43.552Z,2.50
2018-07-14T22:50:11.568Z,2.17
2018-07-14T22:52:39.657Z,2.00
2018-07-14T22:55:07.818Z,2.23
2018-07-14T22:57:35.974Z,2.30
2018-07-14T23:00:04.648Z,2.40
2018-07-14T23:02:32.653Z,2.40
2018-07-14T23:05:00.783Z,2.50
2018-07-14T23:07:28.844Z,2.50
2018-07-14T23:09:56.844Z,2.40
2018-07-14T23:12:24.971Z,2.00
2018-07-14T23:14:53.113Z,2.60
2018-07-14T23:17:21.120Z,2.17
2018-07-14T23:19:50.021Z,2.40
2018-07-14T23:22:18.033Z,2.40
2018-07-14T23:24:46.144Z,2.57
2018-07-14T23:27:14.125Z,2.53
2018-07-14T23:29:42.273Z,2.37
2018-07-14T23:32:10.308Z,2.17
2018-07-14T23:34:39.166Z,2.00
2018-07-14T23:37:07.365Z,2.07
2018-07-14T23:39:36.286Z,2.23
2018-07-14T23:42:04.655Z,2.07
2018-07-14T23:44:32.817Z,2.60
2018-07-14T23:47:01.113Z,2.40
2018-07-14T23:49:29.443Z,2.20
2018-07-14T23:51:57.984Z,2.50
2018-07-14T23:54:26.448Z,2.30
2018-07-14T23:56:54.687Z,2.30
2018-07-14T23:59:22.971Z,2.40
